ADDS METAR Data INFO
IDs: Format: Raw Decoded Include TAF

Data at: 0743 UTC 23 Apr 2018

KMAF 230653Z AUTO 11007KT 10SM CLR 16/02 A3012 RMK AO2 SLP169 T01560022
KMAF 230553Z AUTO 10011KT 10SM CLR 17/02 A3012 RMK AO2 SLP168 T01720022 10233 20172 402390056 51010
KMAF 230453Z AUTO 09005KT 10SM FEW120 18/02 A3011 RMK AO2 SLP166 T01830022
KMAF 230353Z 11006KT 10SM CLR 19/02 A3011 RMK AO2 SLP164 T01940022
KMAF 230253Z 09005KT 10SM CLR 19/02 A3009 RMK AO2 SLP162 T01890022 53009
KMAF 230153Z 09008KT 10SM CLR 21/02 A3006 RMK AO2 SLP151 T02110022
KMAF 230053Z 09003KT 10SM CLR 22/02 A3006 RMK AO2 SLP152 T02170022
KMAF 222353Z 05006KT 10SM CLR 22/02 A3006 RMK AO2 SLP153 T02220022 10239 20172 56014
KMAF 222253Z 00000KT 10SM CLR 23/02 A3007 RMK AO2 SLP156 T02280022
KMAF 222153Z 00000KT 10SM CLR 22/02 A3008 RMK AO2 SLP160 T02220022
KMAF 222053Z 27006KT 10SM CLR 22/02 A3011 RMK AO2 SLP168 T02220022 56025
KMAF 221953Z 10SM CLR 21/03 A3014 RMK AO2 SLP178 T02110028
KMAF 221853Z VRB03KT 10SM CLR 19/03 A3015 RMK AO2 SLP185 T01890028 $
KMAF 221753Z 00000KT 10SM CLR 18/03 A3019 RMK AO2 SLP196 T01830033 10183 20056 58012 $
KMAF 221653Z VRB04KT 10SM CLR 17/04 A3021 RMK AO2 SLP204 T01670044 $
KMAF 221553Z VRB06KT 10SM CLR 14/05 A3022 RMK AO2 SLP209 T01440050 $
KMAF 221453Z 04009KT 10SM CLR 12/06 A3022 RMK AO2 SLP212 T01220061 50004 $
KMAF 221353Z 01009KT 10SM CLR 11/06 A3023 RMK AO2 SLP212 T01060056 $
KMAF 221253Z 33005KT 10SM CLR 07/04 A3022 RMK AO2 SLP212 T00720044 $
KMAF 221153Z AUTO 28005KT 10SM CLR 06/04 A3021 RMK AO2 SLP206 T00610039 10117 20061 53015 $
KMAF 221053Z AUTO 36004KT 10SM CLR 07/04 A3018 RMK AO2 SLP193 T00720044 $
KMAF 220953Z AUTO 01008KT 10SM CLR 08/04 A3017 RMK AO2 SLP186 T00780044 $
KMAF 220853Z AUTO 02007KT 10SM CLR 08/04 A3016 RMK AO2 SLP183 T00830044 50004 $
KMAF 220753Z AUTO 04005KT 10SM CLR 10/05 A3017 RMK AO2 SLP185 T01000050 $
KMAF 220653Z AUTO 01008KT 10SM CLR 11/04 A3016 RMK AO2 SLP180 T01060044 $
KMAF 220553Z AUTO 04009KT 10SM CLR 12/05 A3015 RMK AO2 SLP178 T01170050 10217 20117 402610111 51011 $
KMAF 220453Z AUTO 05010KT 10SM CLR 13/06 A3014 RMK AO2 SLP176 T01280056 $
KMAF 220353Z 05010KT 10SM CLR 14/06 A3013 RMK AO2 SLP173 T01390056 $
KMAF 220253Z 05016KT 10SM CLR 14/06 A3012 RMK AO2 PK WND 04027/0205 SLP172 T01440056 51028 $
KMAF 220153Z 05016G25KT 10SM CLR 17/05 A3009 RMK AO2 PK WND 03028/0103 SLP163 T01670050 $
KMAF 220053Z 01017G24KT 10SM BLDU CLR 18/04 A3006 RMK AO2 PK WND 02028/0029 SLP151 T01830039 $
KMAF 212353Z 36018G21KT 10SM BLDU CLR 22/04 A3003 RMK AO2 PK WND 02026/2332 SLP134 T02170039 10261 20217 53017 $
KMAF 212253Z 35017G23KT 8SM BLDU CLR 23/04 A3000 RMK AO2 PK WND 36030/2155 WSHFT 2150 SLP125 T02330039 $
KMAF 212153Z 34024G36KT 9SM BLDU CLR 26/00 A2998 RMK AO2 PK WND 32036/2151 SLP114 T02560000 $
KMAF 212053Z 33016G25KT 10SM CLR 26/M03 A2997 RMK AO2 PK WND 31026/2008 SLP110 T02611033 55001 $
KMAF 211953Z AUTO 29015G25KT 10SM CLR 26/M03 A2997 RMK AO2 PK WND 32028/1938 SLP108 T02611033 $